Time;durP1;ratioP1;P1;durP2;ratioP2;P2;SDS_P1;SDS_P2;PMS_P1;PMS_P2;Temp;Humidity;BMP_temperature;BMP_pressure;BME280_temperature;BME280_humidity;BME280_pressure;Samples;Min_cycle;Max_cycle;Signal;HPM_P1;HPM_P2
2022/11/21 00:02:23;;;;;;;30.43;17.13;;;-0.90;99.90;;;;;;5192249;28;20177;-52
2022/11/21 00:04:53;;;;;;;31.90;16.47;;;-0.90;99.90;;;;;;5182069;28;20707;-50
2022/11/21 00:07:24;;;;;;;27.53;16.00;;;-0.90;99.90;;;;;;5200571;28;20225;-51
2022/11/21 00:09:55;;;;;;;27.90;14.90;;;-1.00;99.90;;;;;;5195217;28;20207;-52
2022/11/21 00:12:25;;;;;;;25.70;15.60;;;-0.90;99.90;;;;;;5199861;28;20247;-50
2022/11/21 00:14:56;;;;;;;30.80;17.20;;;-0.80;99.90;;;;;;5199856;28;20187;-52
2022/11/21 00:17:27;;;;;;;26.37;14.47;;;-0.90;99.90;;;;;;5212319;28;20249;-51
2022/11/21 00:19:57;;;;;;;29.60;15.70;;;-1.00;99.90;;;;;;5197274;28;20692;-51
2022/11/21 00:22:29;;;;;;;28.53;14.97;;;-0.80;99.90;;;;;;5197270;28;20188;-52
2022/11/21 00:25:00;;;;;;;29.70;14.67;;;-0.80;99.90;;;;;;5198267;28;20610;-53
2022/11/21 00:27:30;;;;;;;29.27;16.37;;;-0.80;99.90;;;;;;5203249;28;20434;-50
2022/11/21 00:30:01;;;;;;;28.07;15.90;;;-0.70;99.90;;;;;;5203018;28;20206;-52
2022/11/21 00:32:32;;;;;;;25.53;14.63;;;-0.70;99.90;;;;;;5197734;28;20180;-50
2022/11/21 00:35:03;;;;;;;27.57;15.60;;;-0.70;99.90;;;;;;5193207;28;20183;-49
2022/11/21 00:37:34;;;;;;;28.50;15.63;;;-0.70;99.90;;;;;;5185842;28;20545;-52
2022/11/21 00:40:05;;;;;;;27.13;14.20;;;-0.60;99.90;;;;;;5199021;28;20549;-52
2022/11/21 00:42:36;;;;;;;30.43;15.50;;;-0.70;99.90;;;;;;5191703;28;20497;-51
2022/11/21 00:45:07;;;;;;;28.60;16.07;;;-0.80;99.90;;;;;;5189835;28;20419;-51
2022/11/21 00:47:37;;;;;;;27.63;14.80;;;-0.80;99.90;;;;;;5202171;28;20179;-56
2022/11/21 00:50:09;;;;;;;27.07;14.70;;;-0.90;99.90;;;;;;5203377;28;20545;-50
2022/11/21 00:52:40;;;;;;;26.40;16.20;;;-0.80;99.90;;;;;;5205870;28;20191;-51
2022/11/21 00:55:10;;;;;;;24.67;14.73;;;-0.80;99.90;;;;;;5206615;28;20437;-53
2022/11/21 00:57:41;;;;;;;27.53;15.90;;;-0.80;99.90;;;;;;5203163;28;20267;-50
2022/11/21 01:00:12;;;;;;;25.00;13.80;;;-0.80;99.90;;;;;;5203288;28;20223;-52
2022/11/21 01:02:43;;;;;;;26.80;15.63;;;-0.70;99.90;;;;;;5203023;28;20195;-50
2022/11/21 01:05:14;;;;;;;24.43;14.90;;;-0.70;99.90;;;;;;5207192;28;20439;-51
2022/11/21 01:07:47;;;;;;;28.20;15.80;;;-0.70;99.90;;;;;;5205508;28;20438;-52
2022/11/21 01:10:18;;;;;;;28.40;16.30;;;-0.70;99.90;;;;;;5207132;28;20515;-51
2022/11/21 01:12:48;;;;;;;26.70;14.70;;;-0.70;99.90;;;;;;5204245;28;20491;-52
2022/11/21 01:15:19;;;;;;;33.33;16.40;;;-0.60;99.90;;;;;;5203276;28;20200;-52
2022/11/21 01:17:50;;;;;;;26.40;15.53;;;-0.70;99.90;;;;;;5202444;28;20266;-54
2022/11/21 01:20:20;;;;;;;22.40;15.00;;;-0.70;99.90;;;;;;5201763;28;20702;-54
2022/11/21 01:22:51;;;;;;;29.27;17.00;;;-0.60;99.90;;;;;;5199368;28;20179;-53
2022/11/21 01:25:21;;;;;;;33.87;16.27;;;-0.60;99.90;;;;;;5206293;28;20191;-53
2022/11/21 01:27:52;;;;;;;24.87;14.40;;;-0.70;99.90;;;;;;5203460;28;20271;-52
2022/11/21 01:30:23;;;;;;;25.67;15.73;;;-0.80;99.90;;;;;;5205448;28;20295;-53
2022/11/21 01:32:53;;;;;;;28.57;15.37;;;-0.70;99.90;;;;;;5205358;28;20192;-51
2022/11/21 01:35:24;;;;;;;26.60;15.20;;;-0.70;99.90;;;;;;5205400;28;20186;-51
2022/11/21 01:37:55;;;;;;;30.63;16.47;;;-0.70;99.90;;;;;;5205964;28;20741;-51
2022/11/21 01:40:25;;;;;;;27.03;15.60;;;-0.50;99.90;;;;;;5203550;28;20464;-49
2022/11/21 01:43:08;;;;;;;30.00;18.20;;;-0.60;99.90;;;;;;5202614;28;20675;-51
2022/11/21 01:46:02;;;;;;;33.57;17.37;;;-0.60;99.90;;;;;;5204145;28;20188;-52
2022/11/21 01:48:51;;;;;;;30.93;17.47;;;-0.70;99.90;;;;;;5203948;28;20448;-51
2022/11/21 01:51:30;;;;;;;32.13;16.43;;;-0.70;99.90;;;;;;5216063;28;20458;-51
2022/11/21 01:54:01;;;;;;;32.80;17.70;;;-0.80;99.90;;;;;;5204553;28;20441;-51
2022/11/21 01:56:37;;;;;;;33.57;18.40;;;-0.80;99.90;;;;;;5202672;28;20434;-51
2022/11/21 01:59:14;;;;;;;34.43;18.73;;;-0.80;99.90;;;;;;5202022;28;20179;-51
2022/11/21 02:01:47;;;;;;;35.87;19.37;;;-0.90;99.90;;;;;;5198755;28;20992;-54
2022/11/21 02:04:18;;;;;;;35.10;18.53;;;-0.90;99.90;;;;;;5196230;28;20438;-51
2022/11/21 02:06:49;;;;;;;35.70;17.70;;;-0.90;99.90;;;;;;5202349;28;20465;-51
2022/11/21 02:09:21;;;;;;;34.53;18.77;;;-0.90;99.90;;;;;;5203833;28;20529;-52
2022/11/21 02:11:57;;;;;;;30.30;16.70;;;-1.00;99.90;;;;;;5216563;28;20461;-51
2022/11/21 02:14:28;;;;;;;36.80;18.97;;;-1.00;99.90;;;;;;5201372;28;20468;-50
2022/11/21 02:17:03;;;;;;;33.80;19.53;;;-1.00;99.90;;;;;;5191909;28;20442;-50
2022/11/21 02:19:45;;;;;;;38.60;19.77;;;-1.00;99.90;;;;;;5198491;28;20467;-51
2022/11/21 02:22:34;;;;;;;35.17;18.00;;;-1.00;99.90;;;;;;5201917;28;20538;-50
2022/11/21 02:25:13;;;;;;;30.53;18.60;;;-1.00;99.90;;;;;;5194378;28;20431;-51
2022/11/21 02:27:44;;;;;;;34.80;17.63;;;-1.00;99.90;;;;;;5203210;28;20485;-51
2022/11/21 02:30:17;;;;;;;37.43;20.30;;;-1.00;99.90;;;;;;5204492;28;20561;-50
2022/11/21 02:32:47;;;;;;;38.23;20.00;;;-1.00;99.90;;;;;;5197603;28;20446;-52
2022/11/21 02:35:18;;;;;;;33.53;18.70;;;-1.00;99.90;;;;;;5204412;28;21119;-50
2022/11/21 02:37:59;;;;;;;35.30;18.43;;;-1.00;99.90;;;;;;5198614;28;20210;-51
2022/11/21 02:40:38;;;;;;;29.40;17.20;;;-1.00;99.90;;;;;;5200784;28;20215;-51
2022/11/21 02:43:25;;;;;;;33.60;18.50;;;-1.00;99.90;;;;;;5206066;28;20429;-51
2022/11/21 02:45:57;;;;;;;30.87;19.03;;;-1.00;99.90;;;;;;5201505;28;20774;-51
2022/11/21 02:48:28;;;;;;;38.17;19.50;;;-0.90;99.90;;;;;;5204332;28;20566;-50
2022/11/21 02:50:59;;;;;;;35.10;17.93;;;-0.90;99.90;;;;;;5199929;28;20524;-51
2022/11/21 02:53:29;;;;;;;33.63;19.50;;;-1.00;99.90;;;;;;5194937;28;20184;-51
2022/11/21 02:56:00;;;;;;;44.33;19.63;;;-0.90;99.90;;;;;;5198907;28;20245;-50
2022/11/21 02:58:31;;;;;;;32.43;17.80;;;-1.00;99.90;;;;;;5204546;28;20187;-51
2022/11/21 03:01:01;;;;;;;34.20;19.50;;;-1.10;99.90;;;;;;5197432;28;20664;-50
2022/11/21 03:03:32;;;;;;;38.53;18.70;;;-1.10;99.90;;;;;;5198864;28;20177;-51
2022/11/21 03:06:03;;;;;;;33.03;19.80;;;-1.10;99.90;;;;;;5203216;28;20655;-52
2022/11/21 03:08:33;;;;;;;43.43;18.50;;;-1.10;99.90;;;;;;5198453;28;20259;-51
2022/11/21 03:11:04;;;;;;;42.47;20.03;;;-1.20;99.90;;;;;;5198260;28;20212;-53
2022/11/21 03:13:34;;;;;;;32.13;17.57;;;-1.20;99.90;;;;;;5199294;28;20187;-52
2022/11/21 03:16:05;;;;;;;32.53;18.40;;;-1.20;99.90;;;;;;5198070;28;20192;-51
2022/11/21 03:18:36;;;;;;;33.30;18.53;;;-1.20;99.90;;;;;;5196007;28;20644;-51
2022/11/21 03:21:06;;;;;;;38.30;20.27;;;-1.20;99.90;;;;;;5201648;28;20211;-52
2022/11/21 03:23:37;;;;;;;38.70;19.03;;;-1.20;99.90;;;;;;5196532;28;20536;-49
2022/11/21 03:26:07;;;;;;;39.83;19.40;;;-1.30;99.90;;;;;;5202332;28;20264;-52
2022/11/21 03:28:40;;;;;;;34.00;19.47;;;-1.20;99.90;;;;;;5203076;28;20643;-51
2022/11/21 03:31:10;;;;;;;32.70;18.60;;;-1.20;99.90;;;;;;5193689;28;20242;-51
2022/11/21 03:33:41;;;;;;;31.90;18.63;;;-1.10;99.90;;;;;;5199126;28;21025;-53
2022/11/21 03:36:12;;;;;;;32.30;18.60;;;-1.20;99.90;;;;;;5201293;28;20184;-52
2022/11/21 03:38:42;;;;;;;33.30;17.53;;;-1.30;99.90;;;;;;5195083;28;20639;-50
2022/11/21 03:44:15;;;;;;;36.47;19.73;;;-1.30;99.90;;;;;;5188388;28;20187;-50
2022/11/21 03:46:47;;;;;;;31.37;17.17;;;-1.30;99.90;;;;;;5201870;28;20529;-52
2022/11/21 03:49:18;;;;;;;36.20;20.07;;;-1.30;99.90;;;;;;5196692;28;20180;-53
2022/11/21 03:51:48;;;;;;;34.80;20.30;;;-1.30;99.90;;;;;;5200911;28;20449;-52
2022/11/21 03:54:19;;;;;;;34.00;18.90;;;-1.20;99.90;;;;;;5199859;28;20206;-52
2022/11/21 03:56:50;;;;;;;32.80;19.20;;;-1.20;99.90;;;;;;5204336;28;20318;-52
2022/11/21 03:59:20;;;;;;;37.70;18.80;;;-1.20;99.90;;;;;;5202971;28;20192;-51
2022/11/21 04:01:51;;;;;;;38.87;19.93;;;-1.30;99.90;;;;;;5197175;28;20211;-52
2022/11/21 04:04:21;;;;;;;36.70;18.47;;;-1.30;99.90;;;;;;5198747;28;20684;-51
2022/11/21 04:06:52;;;;;;;37.27;20.10;;;-1.30;99.90;;;;;;5200481;28;20644;-49
2022/11/21 04:09:22;;;;;;;33.10;19.70;;;-1.30;99.90;;;;;;5204494;28;20187;-50
2022/11/21 04:11:53;;;;;;;40.27;19.53;;;-1.40;99.90;;;;;;5200396;28;20195;-52
2022/11/21 04:14:24;;;;;;;35.17;19.70;;;-1.30;99.90;;;;;;5197433;28;20199;-50
2022/11/21 04:16:54;;;;;;;40.27;19.00;;;-1.30;99.90;;;;;;5197499;28;20195;-52
2022/11/21 04:19:25;;;;;;;34.13;19.47;;;-1.30;99.90;;;;;;5194131;28;20198;-52
2022/11/21 04:21:56;;;;;;;36.60;20.33;;;-1.30;99.90;;;;;;5195427;28;20226;-53
2022/11/21 04:24:26;;;;;;;35.03;18.73;;;-1.20;99.90;;;;;;5198521;28;20187;-50
2022/11/21 04:26:57;;;;;;;36.90;18.30;;;-1.20;99.90;;;;;;5198531;28;20190;-51
2022/11/21 04:29:27;;;;;;;32.53;18.47;;;-1.10;99.90;;;;;;5193126;28;20188;-52
2022/11/21 04:31:58;;;;;;;41.13;18.97;;;-1.20;99.90;;;;;;5216938;28;20191;-53
2022/11/21 04:34:28;;;;;;;33.87;19.50;;;-1.20;99.90;;;;;;5201381;28;20560;-51
2022/11/21 04:36:59;;;;;;;33.60;19.80;;;-1.20;99.90;;;;;;5197127;28;20192;-50
2022/11/21 04:39:30;;;;;;;43.60;19.70;;;-1.30;99.90;;;;;;5199196;28;20270;-50
2022/11/21 04:42:00;;;;;;;33.70;18.60;;;-1.20;99.90;;;;;;5187807;28;20306;-51
2022/11/21 04:44:31;;;;;;;33.90;18.53;;;-1.30;99.90;;;;;;5200129;28;20188;-50
2022/11/21 04:47:01;;;;;;;41.77;21.13;;;-1.20;99.90;;;;;;5200635;28;20723;-50
2022/11/21 04:49:32;;;;;;;37.60;20.40;;;-1.20;99.90;;;;;;5192199;28;20184;-50
2022/11/21 04:52:03;;;;;;;39.87;20.23;;;-1.10;99.90;;;;;;5201827;28;20261;-51
2022/11/21 04:54:33;;;;;;;36.87;20.13;;;-1.10;99.90;;;;;;5198475;28;20179;-50
2022/11/21 04:57:04;;;;;;;46.13;21.80;;;-1.10;99.90;;;;;;5201060;28;20700;-51
2022/11/21 04:59:34;;;;;;;47.87;22.17;;;-1.10;99.90;;;;;;5199863;28;20176;-53
2022/11/21 05:02:05;;;;;;;44.30;20.70;;;-1.10;99.90;;;;;;5199302;28;20179;-52
2022/11/21 05:04:36;;;;;;;34.13;19.17;;;-1.00;99.90;;;;;;5201517;28;20215;-54
2022/11/21 05:07:06;;;;;;;37.80;21.57;;;-1.00;99.90;;;;;;5200547;28;20188;-52
2022/11/21 05:09:37;;;;;;;39.63;21.57;;;-1.10;99.90;;;;;;5178348;28;20397;-53
2022/11/21 05:14:58;;;;;;;43.37;19.97;;;-1.00;99.90;;;;;;5197716;28;20241;-53
2022/11/21 05:17:29;;;;;;;50.83;21.37;;;-1.00;99.90;;;;;;5200665;28;20848;-52
2022/11/21 05:19:59;;;;;;;34.27;19.10;;;-1.00;99.90;;;;;;5200636;28;20215;-52
2022/11/21 05:22:30;;;;;;;40.13;21.63;;;-1.00;99.90;;;;;;5216837;28;20256;-57
2022/11/21 05:25:00;;;;;;;38.90;20.70;;;-0.90;99.90;;;;;;5199252;28;20199;-53
2022/11/21 05:27:31;;;;;;;37.77;19.90;;;-1.00;99.90;;;;;;5200567;28;20187;-51
2022/11/21 05:30:02;;;;;;;39.83;21.83;;;-1.00;99.90;;;;;;5197278;28;20574;-53
2022/11/21 05:32:33;;;;;;;38.27;20.60;;;-0.90;99.90;;;;;;5195943;28;20183;-52
2022/11/21 05:35:04;;;;;;;42.47;21.57;;;-0.90;99.90;;;;;;5198649;28;20430;-52
2022/11/21 05:37:34;;;;;;;42.40;21.00;;;-0.90;99.90;;;;;;5198238;28;20548;-52
2022/11/21 05:40:06;;;;;;;40.97;21.30;;;-0.90;99.90;;;;;;5202152;28;20465;-52
2022/11/21 05:45:32;;;;;;;54.63;21.40;;;-0.80;99.90;;;;;;5202721;28;20427;-52
2022/11/21 05:48:06;;;;;;;35.23;19.90;;;-0.80;99.90;;;;;;5201471;28;20942;-51
2022/11/21 05:50:37;;;;;;;42.90;21.10;;;-0.70;99.90;;;;;;5213589;28;20639;-53
2022/11/21 05:53:07;;;;;;;36.33;20.30;;;-0.80;99.90;;;;;;5200425;28;20426;-53
2022/11/21 05:55:38;;;;;;;40.87;22.47;;;-0.80;99.90;;;;;;5199707;28;20263;-52
2022/11/21 05:58:09;;;;;;;38.90;21.27;;;-0.80;99.90;;;;;;5203687;28;20191;-51
2022/11/21 06:00:40;;;;;;;34.93;20.67;;;-0.80;99.90;;;;;;5197774;28;20216;-53
2022/11/21 06:03:27;;;;;;;41.73;21.07;;;-0.90;99.90;;;;;;5192383;28;20485;-52
2022/11/21 06:06:01;;;;;;;43.80;22.10;;;-0.90;99.90;;;;;;5198835;28;20634;-52
2022/11/21 06:08:38;;;;;;;35.90;18.90;;;-0.80;99.90;;;;;;5200726;28;20473;-51
2022/11/21 06:11:13;;;;;;;36.37;19.17;;;-0.80;99.90;;;;;;5194433;28;20454;-51
2022/11/21 06:13:44;;;;;;;34.57;19.53;;;-0.80;99.90;;;;;;5201875;28;21050;-50
2022/11/21 06:16:18;;;;;;;28.93;18.60;;;-0.70;99.90;;;;;;5204649;28;20473;-53
2022/11/21 06:18:54;;;;;;;37.43;20.50;;;-0.70;99.90;;;;;;5197244;28;20183;-52
2022/11/21 06:21:27;;;;;;;42.23;20.30;;;-0.70;99.90;;;;;;5184263;28;21014;-52
2022/11/21 06:23:57;;;;;;;37.87;20.20;;;-0.70;99.90;;;;;;5198131;28;20524;-51
2022/11/21 06:26:28;;;;;;;31.87;18.30;;;-0.70;99.90;;;;;;5201604;28;21089;-50
2022/11/21 06:28:59;;;;;;;35.03;18.70;;;-0.70;99.90;;;;;;5198016;28;20272;-53
2022/11/21 06:31:30;;;;;;;29.30;17.93;;;-0.60;99.90;;;;;;5200213;28;20205;-54
2022/11/21 06:34:02;;;;;;;32.73;18.30;;;-0.50;99.90;;;;;;5206728;28;20290;-53
2022/11/21 06:36:32;;;;;;;31.70;19.10;;;-0.30;99.90;;;;;;5206346;28;20436;-53
2022/11/21 06:39:03;;;;;;;38.03;19.40;;;-0.30;99.90;;;;;;5203846;28;20446;-53
2022/11/21 06:41:34;;;;;;;34.07;18.37;;;-0.20;99.90;;;;;;5204877;28;20220;-52
2022/11/21 06:44:04;;;;;;;33.80;17.13;;;-0.30;99.90;;;;;;5203744;28;20676;-50
2022/11/21 06:46:35;;;;;;;33.50;18.50;;;-0.20;99.90;;;;;;5194539;28;20188;-50
2022/11/21 06:49:06;;;;;;;41.87;20.23;;;-0.20;99.90;;;;;;5205413;28;20188;-50
2022/11/21 06:51:36;;;;;;;35.23;18.07;;;-0.20;99.90;;;;;;5217497;28;20685;-50
2022/11/21 06:54:07;;;;;;;28.83;17.33;;;-0.20;99.90;;;;;;5198071;28;20299;-50
2022/11/21 06:56:38;;;;;;;41.60;19.07;;;-0.30;99.90;;;;;;5197556;28;20294;-49
2022/11/21 06:59:08;;;;;;;34.07;16.53;;;-0.30;99.90;;;;;;5205837;28;20269;-50
2022/11/21 07:01:39;;;;;;;29.10;17.40;;;-0.30;99.90;;;;;;5197762;28;20527;-50
2022/11/21 07:04:09;;;;;;;31.00;17.30;;;-0.50;99.90;;;;;;5201085;28;20187;-51
2022/11/21 07:06:40;;;;;;;33.07;18.40;;;-0.50;99.90;;;;;;5199645;28;20237;-50
2022/11/21 07:09:11;;;;;;;26.23;16.73;;;-0.60;99.90;;;;;;5197668;28;20316;-53
2022/11/21 07:11:42;;;;;;;33.07;18.77;;;-0.70;99.90;;;;;;5200255;28;20721;-53
2022/11/21 07:14:12;;;;;;;35.50;18.70;;;-0.70;99.90;;;;;;5194300;28;20194;-52
2022/11/21 07:16:43;;;;;;;42.57;20.47;;;-0.80;99.90;;;;;;5193656;28;20450;-52
2022/11/21 07:19:14;;;;;;;36.57;19.17;;;-0.80;99.90;;;;;;5204425;28;20195;-50
2022/11/21 07:21:44;;;;;;;36.20;20.07;;;-0.90;99.90;;;;;;5191079;28;20587;-51
2022/11/21 07:24:15;;;;;;;30.43;18.03;;;-0.90;99.90;;;;;;5194122;28;20183;-50
2022/11/21 07:26:45;;;;;;;31.80;19.13;;;-0.90;99.90;;;;;;5193167;28;20192;-51
2022/11/21 07:29:16;;;;;;;36.40;18.50;;;-1.00;99.90;;;;;;5190171;28;20612;-53
2022/11/21 07:31:46;;;;;;;28.97;18.50;;;-1.00;99.90;;;;;;5195071;28;20603;-51
2022/11/21 07:34:17;;;;;;;34.60;19.27;;;-1.10;99.90;;;;;;5196592;28;20267;-52
2022/11/21 07:36:48;;;;;;;36.80;21.30;;;-1.10;99.90;;;;;;5199284;28;20196;-52
2022/11/21 07:39:18;;;;;;;39.70;21.53;;;-1.00;99.90;;;;;;5199196;28;20192;-53
2022/11/21 07:41:49;;;;;;;32.80;20.10;;;-0.90;99.90;;;;;;5204393;28;20227;-52
2022/11/21 07:44:19;;;;;;;36.53;19.47;;;-0.70;99.90;;;;;;5199297;28;20293;-51
2022/11/21 07:46:54;;;;;;;37.10;18.70;;;-0.50;99.90;;;;;;5194951;28;20187;-52
2022/11/21 07:49:24;;;;;;;40.60;19.97;;;-0.40;99.90;;;;;;5189978;28;20180;-52
2022/11/21 07:51:55;;;;;;;39.07;20.60;;;-0.20;99.90;;;;;;5194242;28;20813;-51
2022/11/21 07:54:26;;;;;;;37.77;20.10;;;-0.10;99.90;;;;;;5194480;28;20234;-51
2022/11/21 07:56:56;;;;;;;44.33;21.60;;;-0.10;99.90;;;;;;5195269;28;20208;-51
2022/11/21 07:59:27;;;;;;;46.33;21.77;;;0.00;99.90;;;;;;5194294;28;20743;-51
2022/11/21 08:01:57;;;;;;;42.63;23.27;;;0.10;99.90;;;;;;5197270;28;20220;-50
2022/11/21 08:04:28;;;;;;;44.67;20.43;;;0.10;99.90;;;;;;5189621;28;20186;-51
2022/11/21 08:07:00;;;;;;;49.27;22.33;;;0.10;99.90;;;;;;5189385;28;20237;-53
2022/11/21 08:09:30;;;;;;;44.53;21.67;;;0.10;99.90;;;;;;5196439;28;20200;-50
2022/11/21 08:12:01;;;;;;;39.60;21.27;;;0.20;99.90;;;;;;5196345;28;20444;-52
2022/11/21 08:14:35;;;;;;;39.00;20.77;;;0.30;99.90;;;;;;5195497;28;20200;-52
2022/11/21 08:17:06;;;;;;;38.50;20.83;;;0.30;99.90;;;;;;5193614;28;20694;-50
2022/11/21 08:19:37;;;;;;;39.20;20.60;;;0.30;99.90;;;;;;5191578;28;20462;-53
2022/11/21 08:22:07;;;;;;;42.60;22.07;;;0.50;99.90;;;;;;5195078;28;21050;-51
2022/11/21 08:24:38;;;;;;;41.43;20.33;;;0.50;99.90;;;;;;5194351;28;20183;-50
2022/11/21 08:27:09;;;;;;;38.90;21.50;;;0.50;99.90;;;;;;5192223;28;20195;-52
2022/11/21 08:29:39;;;;;;;37.10;20.47;;;0.60;99.90;;;;;;5192261;28;20208;-51
2022/11/21 08:32:10;;;;;;;39.57;20.83;;;0.60;99.90;;;;;;5189980;28;20574;-52
2022/11/21 08:34:40;;;;;;;32.73;18.37;;;0.50;99.90;;;;;;5191726;28;20207;-50
2022/11/21 08:37:11;;;;;;;39.43;20.47;;;0.50;99.90;;;;;;5192706;28;20290;-50
2022/11/21 08:39:42;;;;;;;32.43;18.60;;;0.50;99.90;;;;;;5199754;28;20210;-51
2022/11/21 08:42:12;;;;;;;33.57;18.77;;;0.50;99.90;;;;;;5198107;28;20184;-50
2022/11/21 08:44:43;;;;;;;31.13;16.13;;;0.50;99.90;;;;;;5197271;28;20240;-51
2022/11/21 08:47:13;;;;;;;40.57;20.63;;;0.40;99.90;;;;;;5195414;28;20590;-51
2022/11/21 08:49:44;;;;;;;36.13;18.80;;;0.40;99.90;;;;;;5195219;28;20291;-52
2022/11/21 08:52:16;;;;;;;34.47;18.70;;;0.40;99.90;;;;;;5209532;28;20219;-52
2022/11/21 08:54:46;;;;;;;34.70;19.17;;;0.20;99.90;;;;;;5192857;28;20179;-51
2022/11/21 08:57:17;;;;;;;44.43;20.63;;;0.30;99.90;;;;;;5191166;28;20434;-51
2022/11/21 08:59:48;;;;;;;42.77;20.37;;;0.50;99.90;;;;;;5207143;28;20200;-50
2022/11/21 09:02:18;;;;;;;45.53;22.20;;;0.30;99.90;;;;;;5192177;28;20191;-50
2022/11/21 09:04:49;;;;;;;52.17;22.60;;;0.40;99.90;;;;;;5191700;28;20207;-52
2022/11/21 09:07:19;;;;;;;40.13;20.07;;;0.20;99.90;;;;;;5195429;28;21133;-52
2022/11/21 09:09:50;;;;;;;40.60;19.80;;;0.10;99.90;;;;;;5196239;28;20246;-51
2022/11/21 09:12:21;;;;;;;42.10;19.80;;;0.20;99.90;;;;;;5194243;28;20282;-49
2022/11/21 09:20:32;;;;;;;44.63;19.97;;;0.30;99.90;;;;;;5195910;28;21083;-52
2022/11/21 09:23:08;;;;;;;45.40;18.50;;;0.30;99.90;;;;;;5201670;28;21097;-53
2022/11/21 09:25:39;;;;;;;39.13;18.20;;;0.30;99.90;;;;;;5204540;28;20447;-51
2022/11/21 09:28:11;;;;;;;33.20;16.47;;;0.30;99.90;;;;;;5214406;28;20969;-51
2022/11/21 09:30:42;;;;;;;31.67;16.07;;;0.20;99.90;;;;;;5196543;28;20782;-50
2022/11/21 09:33:15;;;;;;;30.03;16.90;;;0.20;99.90;;;;;;5200373;28;20524;-51
2022/11/21 09:35:46;;;;;;;37.77;16.73;;;0.30;99.90;;;;;;5202665;28;20671;-53
2022/11/21 09:38:16;;;;;;;38.03;16.90;;;0.20;99.90;;;;;;5205506;28;20448;-52
2022/11/21 09:40:47;;;;;;;54.00;22.70;;;0.10;99.90;;;;;;5202066;28;20739;-52
2022/11/21 09:43:51;;;;;;;41.93;18.13;;;0.20;99.90;;;;;;5199337;28;20302;-51
2022/11/21 09:46:30;;;;;;;34.43;18.90;;;0.10;99.90;;;;;;5197640;28;20767;-50
2022/11/21 09:49:05;;;;;;;29.10;15.30;;;0.20;99.90;;;;;;5198340;28;20433;-53
2022/11/21 09:51:37;;;;;;;28.73;15.97;;;0.10;99.90;;;;;;5200377;28;20508;-50
2022/11/21 09:54:23;;;;;;;34.03;16.33;;;0.00;99.90;;;;;;5198487;28;20448;-51
2022/11/21 09:56:55;;;;;;;39.30;16.43;;;0.00;99.90;;;;;;5192222;28;20450;-52
2022/11/21 09:59:36;;;;;;;32.87;16.57;;;0.00;99.90;;;;;;5203807;28;20458;-50
2022/11/21 10:02:15;;;;;;;36.90;15.97;;;0.00;99.90;;;;;;5200789;28;20523;-51
2022/11/21 10:04:47;;;;;;;34.33;16.10;;;-0.10;99.90;;;;;;5184861;28;20464;-50
2022/11/21 10:07:31;;;;;;;31.90;15.90;;;0.00;99.90;;;;;;5201393;28;20549;-51
2022/11/21 10:10:34;;;;;;;30.40;14.23;;;0.00;99.90;;;;;;5193776;28;21063;-51
2022/11/21 10:13:39;;;;;;;26.33;14.60;;;0.00;99.90;;;;;;5199456;28;20447;-53
2022/11/21 10:16:28;;;;;;;30.20;15.53;;;-0.40;99.90;;;;;;5197190;28;20441;-50
2022/11/21 10:19:32;;;;;;;30.07;14.37;;;-0.30;99.90;;;;;;5198062;28;20434;-53
2022/11/21 10:22:31;;;;;;;33.57;16.47;;;-0.30;99.90;;;;;;5212269;28;20499;-52
2022/11/21 10:25:13;;;;;;;33.83;16.70;;;-0.30;99.90;;;;;;5195205;28;20437;-52
2022/11/21 10:28:12;;;;;;;34.67;16.27;;;-0.20;99.90;;;;;;5197621;28;20518;-51
2022/11/21 10:30:44;;;;;;;30.87;15.23;;;-0.30;99.90;;;;;;5197275;28;20488;-52
2022/11/21 10:33:39;;;;;;;34.50;14.67;;;-0.50;99.90;;;;;;5188002;28;20488;-50
2022/11/21 10:36:22;;;;;;;25.07;13.70;;;-0.50;99.90;;;;;;5193258;28;20555;-50
2022/11/21 10:38:59;;;;;;;26.43;14.00;;;-0.30;99.90;;;;;;5202773;28;20448;-52
2022/11/21 10:41:47;;;;;;;22.00;12.30;;;-0.30;99.90;;;;;;5199228;28;20561;-54
2022/11/21 10:47:28;;;;;;;17.27;9.83;;;-0.10;99.90;;;;;;5192195;28;20974;-52
2022/11/21 10:50:08;;;;;;;21.97;11.80;;;-0.10;99.90;;;;;;5198753;28;20503;-50
2022/11/21 10:52:48;;;;;;;32.27;12.40;;;-0.20;99.90;;;;;;5193090;28;20834;-51
2022/11/21 10:55:18;;;;;;;19.13;11.33;;;-0.40;99.90;;;;;;5196703;28;20447;-51
2022/11/21 10:57:50;;;;;;;17.33;9.33;;;-0.50;99.90;;;;;;5191172;28;20448;-50
2022/11/21 11:00:26;;;;;;;19.43;10.13;;;-0.30;99.90;;;;;;5199454;28;20250;-53
2022/11/21 11:02:57;;;;;;;14.40;9.53;;;-0.30;99.90;;;;;;5198939;28;20434;-49
2022/11/21 11:05:29;;;;;;;16.07;10.63;;;-0.40;99.90;;;;;;5187477;28;20505;-52
2022/11/21 11:08:11;;;;;;;15.77;9.73;;;-0.40;99.90;;;;;;5195956;28;20442;-51
2022/11/21 11:11:00;;;;;;;17.00;10.07;;;-0.30;99.90;;;;;;5195305;28;20476;-50
2022/11/21 11:13:32;;;;;;;18.10;10.80;;;-0.20;99.90;;;;;;5190416;28;20466;-52
2022/11/21 11:16:05;;;;;;;25.03;10.33;;;-0.10;99.90;;;;;;5199495;28;20441;-51
2022/11/21 11:18:44;;;;;;;16.40;9.90;;;0.00;99.90;;;;;;5192148;28;20555;-51
2022/11/21 11:21:21;;;;;;;17.40;10.00;;;-0.10;99.90;;;;;;5207937;28;20578;-51
2022/11/21 11:23:53;;;;;;;16.60;9.87;;;-0.20;99.90;;;;;;5189076;28;20436;-55
2022/11/21 11:26:27;;;;;;;18.63;9.97;;;-0.10;99.90;;;;;;5192517;28;20435;-52
2022/11/21 11:29:13;;;;;;;21.90;11.13;;;-0.10;99.90;;;;;;5204076;28;20503;-52
2022/11/21 11:31:49;;;;;;;24.50;11.60;;;0.10;99.90;;;;;;5193744;28;20477;-50
2022/11/21 11:34:20;;;;;;;16.60;10.97;;;0.30;99.90;;;;;;5192268;28;20446;-55
2022/11/21 11:36:53;;;;;;;19.33;13.10;;;0.30;99.90;;;;;;5195749;28;20446;-51
2022/11/21 11:39:41;;;;;;;21.23;12.57;;;0.40;99.90;;;;;;5197717;28;20592;-51
2022/11/21 11:48:42;;;;;;;24.90;12.20;;;0.00;99.90;;;;;;5193451;28;20444;-53
2022/11/21 11:51:30;;;;;;;21.80;11.60;;;0.00;99.90;;;;;;5193853;28;20820;-51
2022/11/21 11:54:11;;;;;;;27.50;12.70;;;0.10;99.90;;;;;;5196517;28;20450;-52
2022/11/21 11:56:42;;;;;;;29.57;14.90;;;0.20;99.90;;;;;;5197565;28;20683;-51
2022/11/21 11:59:28;;;;;;;25.03;13.47;;;0.20;99.90;;;;;;5187807;28;20478;-51
2022/11/21 12:02:05;;;;;;;28.00;14.20;;;0.30;99.90;;;;;;5196134;28;20474;-54
2022/11/21 12:04:51;;;;;;;22.07;13.87;;;0.40;99.90;;;;;;5210742;28;20804;-50
2022/11/21 12:07:30;;;;;;;22.70;13.20;;;0.50;99.90;;;;;;5199108;28;20464;-54
2022/11/21 12:10:12;;;;;;;32.00;15.17;;;0.50;99.90;;;;;;5201127;28;20458;-51
2022/11/21 12:12:50;;;;;;;23.80;15.03;;;0.60;99.90;;;;;;5193835;28;20442;-51
2022/11/21 12:18:19;;;;;;;24.83;13.70;;;0.60;99.90;;;;;;5200793;28;20481;-51
2022/11/21 12:21:02;;;;;;;30.50;13.00;;;0.80;99.90;;;;;;5200475;28;20554;-54
2022/11/21 12:23:41;;;;;;;22.03;15.10;;;0.60;99.90;;;;;;5200659;28;20466;-52
2022/11/21 12:26:19;;;;;;;29.13;15.30;;;0.60;99.90;;;;;;5200681;28;20422;-51
2022/11/21 12:29:05;;;;;;;31.80;18.00;;;0.60;99.90;;;;;;5195942;28;20442;-54
2022/11/21 12:31:44;;;;;;;25.90;15.40;;;0.60;99.90;;;;;;5194284;28;20462;-52
2022/11/21 12:34:42;;;;;;;28.10;15.20;;;0.70;99.90;;;;;;5195500;28;20817;-53
2022/11/21 12:37:58;;;;;;;32.20;15.87;;;0.80;99.90;;;;;;5189946;28;20499;-52
2022/11/21 12:40:49;;;;;;;25.80;14.77;;;0.80;99.90;;;;;;5187603;28;20470;-50
2022/11/21 12:44:01;;;;;;;23.60;15.13;;;0.80;99.90;;;;;;5198289;28;20441;-51
2022/11/21 12:46:41;;;;;;;27.03;15.10;;;0.70;99.90;;;;;;5181038;28;20465;-50
2022/11/21 12:55:20;;;;;;;28.27;15.20;;;0.60;99.90;;;;;;5194589;28;20500;-52
2022/11/21 12:58:11;;;;;;;24.20;14.03;;;0.50;99.90;;;;;;5201971;28;20957;-54
2022/11/21 13:01:05;;;;;;;19.83;12.73;;;0.60;99.90;;;;;;5197622;28;20477;-53
2022/11/21 13:03:58;;;;;;;21.00;12.03;;;0.50;99.90;;;;;;5208655;28;20439;-54
2022/11/21 13:06:34;;;;;;;21.60;13.00;;;0.60;99.90;;;;;;5200329;28;20770;-56
2022/11/21 13:09:12;;;;;;;21.70;12.67;;;0.60;99.90;;;;;;5201161;28;20442;-52
2022/11/21 13:11:58;;;;;;;17.23;10.60;;;0.70;99.90;;;;;;5197457;28;20459;-53
2022/11/21 13:14:38;;;;;;;16.00;11.87;;;0.70;99.90;;;;;;5190240;28;20500;-53
2022/11/21 13:17:17;;;;;;;13.80;9.50;;;0.60;99.90;;;;;;5206088;28;20438;-52
2022/11/21 13:19:57;;;;;;;17.43;10.10;;;0.60;99.90;;;;;;5195494;28;20500;-51
2022/11/21 13:22:37;;;;;;;15.07;10.00;;;0.40;99.90;;;;;;5193595;28;20485;-53
2022/11/21 13:25:26;;;;;;;17.70;10.73;;;0.10;99.90;;;;;;5191070;28;20580;-53
2022/11/21 13:28:12;;;;;;;15.30;10.93;;;-0.10;99.90;;;;;;5197534;28;20912;-57
2022/11/21 13:31:02;;;;;;;21.33;10.70;;;-0.10;99.90;;;;;;5193228;28;20592;-51
2022/11/21 13:33:38;;;;;;;19.20;11.77;;;-0.10;99.90;;;;;;5200150;28;20434;-52
2022/11/21 13:36:34;;;;;;;18.77;10.53;;;0.00;99.90;;;;;;5193294;28;21158;-52
2022/11/21 13:39:05;;;;;;;14.70;9.53;;;0.00;99.90;;;;;;5197389;28;20562;-53
2022/11/21 13:44:31;;;;;;;17.63;11.60;;;0.20;99.90;;;;;;5194060;28;20176;-53